Главная страница
METAR-TAF:

METAR-TAF

Аэропорты :

Нджамена, Чад

широта: 12-08N, долгота: 015-02E, высота над уровнем моря: 295 м

Текущие метеонаблюдения

Эта сводка был подготовлена 16 минут назад, в 14:00 UTC
Ветер 4 Узел переменных направлений
Температура 43°C
Влажность 8%
Давление 1004 hPa
Видимость 10 км и более
Нет облачности ниже 1500 м, и нет кучево-дождевой облачности

METAR: FTTJ 221400Z VRB04KT CAVOK 43/02 Q1004 NOSIG

Время: 15:16 (14:16 UTC)

Прогноз

Эта сводка был подготовлена 3 часа и 16 минут назад, в 11:00 UTC
Прогноз действительный с 22-го 12 UTC до 23-го 18 UTC
Ветер 7 Узел от западный-юго-западный
Видимость: 6000 м

TAF: FTTJ 221100Z 2212/2318 24007KT 6000 NSC

Метеонаблюдения и прогнозы для более 4000 аэропортов (сводки METAR и TAF).

Имеющиеся станции представлены на карте желтыми и красными точками.

Чтобы увидеть название станции, наведите на нее мышь.

Затем щелкните, чтобы увидеть метеонаблюдения и метеопрогнозы.

Управление картой: чтобы увеличить масштаб, щелкните зеленые кнопки с черным крестиком; чтобы уменьшить масштаб, щелкните зеленую кнопку с тире; для просмотра соседних карт щелкайте зеленые стрелки.


METAR-TAF: